sensor_id;sensor_type;location;lat;lon;timestamp;temperature;humidity
18753;DHT22;9505;50.882;5.350;2023-10-08T00:02:45;15.70;99.90
18753;DHT22;9505;50.882;5.350;2023-10-08T00:05:10;15.70;99.90
18753;DHT22;9505;50.882;5.350;2023-10-08T00:07:36;15.70;99.90
18753;DHT22;9505;50.882;5.350;2023-10-08T00:10:02;15.70;99.90
18753;DHT22;9505;50.882;5.350;2023-10-08T00:12:28;15.60;99.90
18753;DHT22;9505;50.882;5.350;2023-10-08T00:14:54;15.60;99.90
18753;DHT22;9505;50.882;5.350;2023-10-08T00:17:20;15.60;99.90
18753;DHT22;9505;50.882;5.350;2023-10-08T00:19:46;15.60;99.90
18753;DHT22;9505;50.882;5.350;2023-10-08T00:22:18;15.50;99.90
18753;DHT22;9505;50.882;5.350;2023-10-08T00:24:44;15.50;99.90
18753;DHT22;9505;50.882;5.350;2023-10-08T00:27:12;15.50;99.90
18753;DHT22;9505;50.882;5.350;2023-10-08T00:29:40;15.50;99.90
18753;DHT22;9505;50.882;5.350;2023-10-08T00:32:08;15.40;99.90
18753;DHT22;9505;50.882;5.350;2023-10-08T00:34:38;15.30;99.90
18753;DHT22;9505;50.882;5.350;2023-10-08T00:37:07;15.20;99.90
18753;DHT22;9505;50.882;5.350;2023-10-08T00:39:35;15.20;99.90
18753;DHT22;9505;50.882;5.350;2023-10-08T00:42:03;15.10;99.90
18753;DHT22;9505;50.882;5.350;2023-10-08T00:44:31;15.00;99.90
18753;DHT22;9505;50.882;5.350;2023-10-08T00:47:01;14.90;99.90
18753;DHT22;9505;50.882;5.350;2023-10-08T00:49:28;14.90;99.90
18753;DHT22;9505;50.882;5.350;2023-10-08T00:52:03;14.90;99.90
18753;DHT22;9505;50.882;5.350;2023-10-08T00:54:35;14.80;99.90
18753;DHT22;9505;50.882;5.350;2023-10-08T00:57:19;14.80;99.90
18753;DHT22;9505;50.882;5.350;2023-10-08T00:59:47;14.80;99.90
18753;DHT22;9505;50.882;5.350;2023-10-08T01:02:37;14.70;99.90
18753;DHT22;9505;50.882;5.350;2023-10-08T01:05:13;14.70;99.90
18753;DHT22;9505;50.882;5.350;2023-10-08T01:07:44;14.70;99.90
18753;DHT22;9505;50.882;5.350;2023-10-08T01:10:14;14.70;99.90
18753;DHT22;9505;50.882;5.350;2023-10-08T01:12:48;14.70;99.90
18753;DHT22;9505;50.882;5.350;2023-10-08T01:15:26;14.60;99.90
18753;DHT22;9505;50.882;5.350;2023-10-08T01:17:56;14.60;99.90
18753;DHT22;9505;50.882;5.350;2023-10-08T01:20:30;14.60;99.90
18753;DHT22;9505;50.882;5.350;2023-10-08T01:23:09;14.60;99.90
18753;DHT22;9505;50.882;5.350;2023-10-08T01:25:42;14.60;99.90
18753;DHT22;9505;50.882;5.350;2023-10-08T01:28:09;14.60;99.90
18753;DHT22;9505;50.882;5.350;2023-10-08T01:30:40;14.70;99.90
18753;DHT22;9505;50.882;5.350;2023-10-08T01:33:08;14.70;99.90
18753;DHT22;9505;50.882;5.350;2023-10-08T01:35:37;14.70;99.90
18753;DHT22;9505;50.882;5.350;2023-10-08T01:38:03;14.70;99.90
18753;DHT22;9505;50.882;5.350;2023-10-08T01:40:29;14.70;99.90
18753;DHT22;9505;50.882;5.350;2023-10-08T01:42:56;14.70;99.90
18753;DHT22;9505;50.882;5.350;2023-10-08T01:45:30;14.60;99.90
18753;DHT22;9505;50.882;5.350;2023-10-08T01:47:57;14.60;99.90
18753;DHT22;9505;50.882;5.350;2023-10-08T01:50:23;14.60;99.90
18753;DHT22;9505;50.882;5.350;2023-10-08T01:52:55;14.60;99.90
18753;DHT22;9505;50.882;5.350;2023-10-08T01:55:20;14.50;99.90
18753;DHT22;9505;50.882;5.350;2023-10-08T01:57:49;14.40;99.90
18753;DHT22;9505;50.882;5.350;2023-10-08T02:00:17;14.20;99.90
18753;DHT22;9505;50.882;5.350;2023-10-08T02:02:51;14.20;99.90
18753;DHT22;9505;50.882;5.350;2023-10-08T02:05:17;14.20;99.90
18753;DHT22;9505;50.882;5.350;2023-10-08T02:07:45;14.10;99.90
18753;DHT22;9505;50.882;5.350;2023-10-08T02:10:11;14.00;99.90
18753;DHT22;9505;50.882;5.350;2023-10-08T02:12:39;13.90;99.90
18753;DHT22;9505;50.882;5.350;2023-10-08T02:15:07;13.90;99.90
18753;DHT22;9505;50.882;5.350;2023-10-08T02:17:33;13.90;99.90
18753;DHT22;9505;50.882;5.350;2023-10-08T02:19:59;13.90;99.90
18753;DHT22;9505;50.882;5.350;2023-10-08T02:22:24;13.90;99.90
18753;DHT22;9505;50.882;5.350;2023-10-08T02:24:50;14.00;99.90
18753;DHT22;9505;50.882;5.350;2023-10-08T02:27:16;14.00;99.90
18753;DHT22;9505;50.882;5.350;2023-10-08T02:29:43;14.10;99.90
18753;DHT22;9505;50.882;5.350;2023-10-08T02:32:09;14.20;99.90
18753;DHT22;9505;50.882;5.350;2023-10-08T02:34:34;14.20;99.90
18753;DHT22;9505;50.882;5.350;2023-10-08T02:37:01;14.30;99.90
18753;DHT22;9505;50.882;5.350;2023-10-08T02:39:29;14.30;99.90
18753;DHT22;9505;50.882;5.350;2023-10-08T02:41:58;14.40;99.90
18753;DHT22;9505;50.882;5.350;2023-10-08T02:44:27;14.50;99.90
18753;DHT22;9505;50.882;5.350;2023-10-08T02:46:53;14.50;99.90
18753;DHT22;9505;50.882;5.350;2023-10-08T02:49:20;14.50;99.90
18753;DHT22;9505;50.882;5.350;2023-10-08T02:51:52;14.60;99.90
18753;DHT22;9505;50.882;5.350;2023-10-08T02:54:19;14.50;99.90
18753;DHT22;9505;50.882;5.350;2023-10-08T02:56:58;14.50;99.90
18753;DHT22;9505;50.882;5.350;2023-10-08T02:59:31;14.50;99.90
18753;DHT22;9505;50.882;5.350;2023-10-08T03:02:14;14.60;99.90
18753;DHT22;9505;50.882;5.350;2023-10-08T03:04:46;14.50;99.90
18753;DHT22;9505;50.882;5.350;2023-10-08T03:07:13;14.50;99.90
18753;DHT22;9505;50.882;5.350;2023-10-08T03:09:47;14.60;99.90
18753;DHT22;9505;50.882;5.350;2023-10-08T03:12:17;14.60;99.90
18753;DHT22;9505;50.882;5.350;2023-10-08T03:14:43;14.50;99.90
18753;DHT22;9505;50.882;5.350;2023-10-08T03:17:35;14.50;99.90
18753;DHT22;9505;50.882;5.350;2023-10-08T03:20:03;14.40;99.90
18753;DHT22;9505;50.882;5.350;2023-10-08T03:22:51;14.40;99.90
18753;DHT22;9505;50.882;5.350;2023-10-08T03:25:17;14.40;99.90
18753;DHT22;9505;50.882;5.350;2023-10-08T03:27:43;14.40;99.90
18753;DHT22;9505;50.882;5.350;2023-10-08T03:30:09;14.30;99.90
18753;DHT22;9505;50.882;5.350;2023-10-08T03:32:44;14.30;99.90
18753;DHT22;9505;50.882;5.350;2023-10-08T03:35:10;14.20;99.90
18753;DHT22;9505;50.882;5.350;2023-10-08T03:37:36;14.20;99.90
18753;DHT22;9505;50.882;5.350;2023-10-08T03:40:07;14.20;99.90
18753;DHT22;9505;50.882;5.350;2023-10-08T03:42:51;14.20;99.90
18753;DHT22;9505;50.882;5.350;2023-10-08T03:45:17;14.10;99.90
18753;DHT22;9505;50.882;5.350;2023-10-08T03:48:03;14.10;99.90
18753;DHT22;9505;50.882;5.350;2023-10-08T03:50:32;14.10;99.90
18753;DHT22;9505;50.882;5.350;2023-10-08T03:53:08;14.10;99.90
18753;DHT22;9505;50.882;5.350;2023-10-08T03:55:40;14.10;99.90
18753;DHT22;9505;50.882;5.350;2023-10-08T03:58:07;14.00;99.90
18753;DHT22;9505;50.882;5.350;2023-10-08T04:00:39;14.00;99.90
18753;DHT22;9505;50.882;5.350;2023-10-08T04:03:08;13.90;99.90
18753;DHT22;9505;50.882;5.350;2023-10-08T04:05:38;13.90;99.90
18753;DHT22;9505;50.882;5.350;2023-10-08T04:08:17;13.80;99.90
18753;DHT22;9505;50.882;5.350;2023-10-08T04:10:45;13.80;99.90
18753;DHT22;9505;50.882;5.350;2023-10-08T04:13:11;13.70;99.90
18753;DHT22;9505;50.882;5.350;2023-10-08T04:15:41;13.70;99.90
18753;DHT22;9505;50.882;5.350;2023-10-08T04:18:08;13.60;99.90
18753;DHT22;9505;50.882;5.350;2023-10-08T04:20:34;13.60;99.90
18753;DHT22;9505;50.882;5.350;2023-10-08T04:23:12;13.50;99.90
18753;DHT22;9505;50.882;5.350;2023-10-08T04:25:46;13.50;99.90
18753;DHT22;9505;50.882;5.350;2023-10-08T04:28:12;13.40;99.90
18753;DHT22;9505;50.882;5.350;2023-10-08T04:30:40;13.30;99.90
18753;DHT22;9505;50.882;5.350;2023-10-08T04:33:07;13.30;99.90
18753;DHT22;9505;50.882;5.350;2023-10-08T04:35:37;13.20;99.90
18753;DHT22;9505;50.882;5.350;2023-10-08T04:38:18;13.20;99.90
18753;DHT22;9505;50.882;5.350;2023-10-08T04:40:45;13.10;99.90
18753;DHT22;9505;50.882;5.350;2023-10-08T04:43:25;13.00;99.90
18753;DHT22;9505;50.882;5.350;2023-10-08T04:48:18;12.80;99.90
18753;DHT22;9505;50.882;5.350;2023-10-08T04:50:49;12.80;99.90
18753;DHT22;9505;50.882;5.350;2023-10-08T04:53:31;12.70;99.90
18753;DHT22;9505;50.882;5.350;2023-10-08T04:56:02;12.70;99.90
18753;DHT22;9505;50.882;5.350;2023-10-08T04:58:34;12.70;99.90
18753;DHT22;9505;50.882;5.350;2023-10-08T05:01:03;12.60;99.90
18753;DHT22;9505;50.882;5.350;2023-10-08T05:03:55;12.60;99.90
18753;DHT22;9505;50.882;5.350;2023-10-08T05:06:28;12.60;99.90
18753;DHT22;9505;50.882;5.350;2023-10-08T05:09:11;12.60;99.90
18753;DHT22;9505;50.882;5.350;2023-10-08T05:11:38;12.50;99.90
18753;DHT22;9505;50.882;5.350;2023-10-08T05:14:25;12.50;99.90
18753;DHT22;9505;50.882;5.350;2023-10-08T05:17:06;12.50;99.90
18753;DHT22;9505;50.882;5.350;2023-10-08T05:19:39;12.50;99.90
18753;DHT22;9505;50.882;5.350;2023-10-08T05:22:17;12.50;99.90
18753;DHT22;9505;50.882;5.350;2023-10-08T05:24:49;12.40;99.90
18753;DHT22;9505;50.882;5.350;2023-10-08T05:27:42;12.40;99.90
18753;DHT22;9505;50.882;5.350;2023-10-08T05:30:20;12.50;99.90
18753;DHT22;9505;50.882;5.350;2023-10-08T05:33:08;12.50;99.90
18753;DHT22;9505;50.882;5.350;2023-10-08T05:35:44;12.60;99.90
18753;DHT22;9505;50.882;5.350;2023-10-08T05:38:15;12.60;99.90
18753;DHT22;9505;50.882;5.350;2023-10-08T05:41:07;12.50;99.90
18753;DHT22;9505;50.882;5.350;2023-10-08T05:43:52;12.40;99.90
18753;DHT22;9505;50.882;5.350;2023-10-08T05:46:38;12.40;99.90
18753;DHT22;9505;50.882;5.350;2023-10-08T05:49:22;12.30;99.90
18753;DHT22;9505;50.882;5.350;2023-10-08T05:51:57;12.30;99.90
18753;DHT22;9505;50.882;5.350;2023-10-08T05:54:29;12.30;99.90
18753;DHT22;9505;50.882;5.350;2023-10-08T05:59:31;12.20;99.90
18753;DHT22;9505;50.882;5.350;2023-10-08T06:02:05;12.20;99.90
18753;DHT22;9505;50.882;5.350;2023-10-08T06:04:51;12.20;99.90
18753;DHT22;9505;50.882;5.350;2023-10-08T06:07:44;12.30;99.90
18753;DHT22;9505;50.882;5.350;2023-10-08T06:10:26;12.20;99.90
18753;DHT22;9505;50.882;5.350;2023-10-08T06:13:12;12.30;99.90
18753;DHT22;9505;50.882;5.350;2023-10-08T06:16:04;12.30;99.90
18753;DHT22;9505;50.882;5.350;2023-10-08T06:18:32;12.40;99.90
18753;DHT22;9505;50.882;5.350;2023-10-08T06:21:03;12.40;99.90
18753;DHT22;9505;50.882;5.350;2023-10-08T06:23:34;12.50;99.90
18753;DHT22;9505;50.882;5.350;2023-10-08T06:26:03;12.50;99.90
18753;DHT22;9505;50.882;5.350;2023-10-08T06:28:35;12.60;99.90
18753;DHT22;9505;50.882;5.350;2023-10-08T06:31:02;12.70;99.90
18753;DHT22;9505;50.882;5.350;2023-10-08T06:33:31;12.80;99.90
18753;DHT22;9505;50.882;5.350;2023-10-08T06:36:02;12.80;99.90
18753;DHT22;9505;50.882;5.350;2023-10-08T06:38:38;12.90;99.90
18753;DHT22;9505;50.882;5.350;2023-10-08T06:41:05;13.00;99.90
18753;DHT22;9505;50.882;5.350;2023-10-08T06:43:44;13.10;99.90
18753;DHT22;9505;50.882;5.350;2023-10-08T06:46:14;13.30;99.90
18753;DHT22;9505;50.882;5.350;2023-10-08T06:48:40;13.40;99.90
18753;DHT22;9505;50.882;5.350;2023-10-08T06:51:10;13.50;99.90
18753;DHT22;9505;50.882;5.350;2023-10-08T06:53:42;13.70;99.90
18753;DHT22;9505;50.882;5.350;2023-10-08T06:56:11;13.80;99.90
18753;DHT22;9505;50.882;5.350;2023-10-08T06:58:38;13.90;99.90
18753;DHT22;9505;50.882;5.350;2023-10-08T07:01:04;14.10;99.90
18753;DHT22;9505;50.882;5.350;2023-10-08T07:03:33;14.30;99.90
18753;DHT22;9505;50.882;5.350;2023-10-08T07:05:59;14.50;99.90
18753;DHT22;9505;50.882;5.350;2023-10-08T07:08:31;14.60;99.90
18753;DHT22;9505;50.882;5.350;2023-10-08T07:11:02;14.80;99.90
18753;DHT22;9505;50.882;5.350;2023-10-08T07:13:33;14.90;99.90
18753;DHT22;9505;50.882;5.350;2023-10-08T07:16:01;15.10;99.90
18753;DHT22;9505;50.882;5.350;2023-10-08T07:18:30;15.20;99.90
18753;DHT22;9505;50.882;5.350;2023-10-08T07:21:00;15.40;99.90
18753;DHT22;9505;50.882;5.350;2023-10-08T07:23:27;15.50;99.90
18753;DHT22;9505;50.882;5.350;2023-10-08T07:26:01;15.60;99.90
18753;DHT22;9505;50.882;5.350;2023-10-08T07:28:43;15.70;99.90
18753;DHT22;9505;50.882;5.350;2023-10-08T07:31:25;15.80;99.90
18753;DHT22;9505;50.882;5.350;2023-10-08T07:33:55;15.90;99.90
18753;DHT22;9505;50.882;5.350;2023-10-08T07:36:27;16.10;99.90
18753;DHT22;9505;50.882;5.350;2023-10-08T07:38:56;16.20;99.90
18753;DHT22;9505;50.882;5.350;2023-10-08T07:41:22;16.40;99.90
18753;DHT22;9505;50.882;5.350;2023-10-08T07:43:49;16.50;99.90
18753;DHT22;9505;50.882;5.350;2023-10-08T07:46:24;16.70;99.90
18753;DHT22;9505;50.882;5.350;2023-10-08T07:48:52;16.80;99.90
18753;DHT22;9505;50.882;5.350;2023-10-08T07:51:18;17.00;99.90
18753;DHT22;9505;50.882;5.350;2023-10-08T07:53:51;17.30;99.90
18753;DHT22;9505;50.882;5.350;2023-10-08T07:56:25;17.50;99.90
18753;DHT22;9505;50.882;5.350;2023-10-08T07:58:54;17.70;99.90
18753;DHT22;9505;50.882;5.350;2023-10-08T08:01:23;17.80;99.90
18753;DHT22;9505;50.882;5.350;2023-10-08T08:03:50;17.80;99.90
18753;DHT22;9505;50.882;5.350;2023-10-08T08:06:16;18.00;99.90
18753;DHT22;9505;50.882;5.350;2023-10-08T08:08:42;18.00;99.90
18753;DHT22;9505;50.882;5.350;2023-10-08T08:11:09;18.30;99.90
18753;DHT22;9505;50.882;5.350;2023-10-08T08:13:39;18.40;99.90
18753;DHT22;9505;50.882;5.350;2023-10-08T08:16:08;19.10;99.90
18753;DHT22;9505;50.882;5.350;2023-10-08T08:18:50;20.00;99.90
18753;DHT22;9505;50.882;5.350;2023-10-08T08:21:25;21.00;99.90
18753;DHT22;9505;50.882;5.350;2023-10-08T08:23:51;21.70;99.90
18753;DHT22;9505;50.882;5.350;2023-10-08T08:26:23;22.10;99.90
18753;DHT22;9505;50.882;5.350;2023-10-08T08:29:00;22.10;99.90
18753;DHT22;9505;50.882;5.350;2023-10-08T08:31:29;22.20;99.90
18753;DHT22;9505;50.882;5.350;2023-10-08T08:33:57;22.20;99.90
18753;DHT22;9505;50.882;5.350;2023-10-08T08:36:27;22.10;99.90
18753;DHT22;9505;50.882;5.350;2023-10-08T08:38:53;22.20;99.90
18753;DHT22;9505;50.882;5.350;2023-10-08T08:41:20;22.40;99.90
18753;DHT22;9505;50.882;5.350;2023-10-08T08:43:51;22.60;99.90
18753;DHT22;9505;50.882;5.350;2023-10-08T08:46:36;22.60;99.90
18753;DHT22;9505;50.882;5.350;2023-10-08T08:49:04;22.40;99.90
18753;DHT22;9505;50.882;5.350;2023-10-08T08:51:36;22.10;99.90
18753;DHT22;9505;50.882;5.350;2023-10-08T08:54:02;22.20;99.90
18753;DHT22;9505;50.882;5.350;2023-10-08T08:56:35;22.10;99.90
18753;DHT22;9505;50.882;5.350;2023-10-08T08:59:02;22.20;99.90
18753;DHT22;9505;50.882;5.350;2023-10-08T09:01:30;22.10;99.90
18753;DHT22;9505;50.882;5.350;2023-10-08T09:04:04;22.50;99.90
18753;DHT22;9505;50.882;5.350;2023-10-08T09:06:36;22.40;99.90
18753;DHT22;9505;50.882;5.350;2023-10-08T09:09:06;22.60;99.90
18753;DHT22;9505;50.882;5.350;2023-10-08T09:11:51;22.80;99.90
18753;DHT22;9505;50.882;5.350;2023-10-08T09:14:22;22.40;99.90
18753;DHT22;9505;50.882;5.350;2023-10-08T09:16:51;22.20;99.90
18753;DHT22;9505;50.882;5.350;2023-10-08T09:19:17;22.20;99.90
18753;DHT22;9505;50.882;5.350;2023-10-08T09:22:00;22.00;99.90
18753;DHT22;9505;50.882;5.350;2023-10-08T09:24:28;22.30;99.90
18753;DHT22;9505;50.882;5.350;2023-10-08T09:26:54;22.60;99.90
18753;DHT22;9505;50.882;5.350;2023-10-08T09:29:23;22.60;99.90
18753;DHT22;9505;50.882;5.350;2023-10-08T09:32:12;22.30;99.90
18753;DHT22;9505;50.882;5.350;2023-10-08T09:34:54;22.30;99.90
18753;DHT22;9505;50.882;5.350;2023-10-08T09:37:21;22.70;99.90
18753;DHT22;9505;50.882;5.350;2023-10-08T09:39:49;22.80;99.90
18753;DHT22;9505;50.882;5.350;2023-10-08T09:42:16;22.60;99.90
18753;DHT22;9505;50.882;5.350;2023-10-08T09:44:47;22.60;99.90
18753;DHT22;9505;50.882;5.350;2023-10-08T09:47:16;22.80;99.90
18753;DHT22;9505;50.882;5.350;2023-10-08T09:49:56;22.70;99.90
18753;DHT22;9505;50.882;5.350;2023-10-08T09:52:28;23.00;99.90
18753;DHT22;9505;50.882;5.350;2023-10-08T09:55:00;23.40;99.90
18753;DHT22;9505;50.882;5.350;2023-10-08T09:57:29;23.70;99.90
18753;DHT22;9505;50.882;5.350;2023-10-08T09:59:54;23.70;99.90
18753;DHT22;9505;50.882;5.350;2023-10-08T10:02:23;23.00;99.90
18753;DHT22;9505;50.882;5.350;2023-10-08T10:04:52;22.90;99.90
18753;DHT22;9505;50.882;5.350;2023-10-08T10:07:19;23.00;99.90
18753;DHT22;9505;50.882;5.350;2023-10-08T10:09:46;23.60;99.90
18753;DHT22;9505;50.882;5.350;2023-10-08T10:12:25;24.30;99.90
18753;DHT22;9505;50.882;5.350;2023-10-08T10:14:55;24.90;99.90
18753;DHT22;9505;50.882;5.350;2023-10-08T10:17:26;25.00;99.90
18753;DHT22;9505;50.882;5.350;2023-10-08T10:19:55;24.70;99.90
18753;DHT22;9505;50.882;5.350;2023-10-08T10:22:32;24.40;99.90
18753;DHT22;9505;50.882;5.350;2023-10-08T10:25:04;24.40;99.90
18753;DHT22;9505;50.882;5.350;2023-10-08T10:27:41;24.50;99.90
18753;DHT22;9505;50.882;5.350;2023-10-08T10:30:08;24.30;99.90
18753;DHT22;9505;50.882;5.350;2023-10-08T10:32:37;24.10;99.90
18753;DHT22;9505;50.882;5.350;2023-10-08T10:35:03;23.90;99.90
18753;DHT22;9505;50.882;5.350;2023-10-08T10:37:34;23.90;99.90
18753;DHT22;9505;50.882;5.350;2023-10-08T10:40:23;24.20;99.90
18753;DHT22;9505;50.882;5.350;2023-10-08T10:42:57;24.30;99.90
18753;DHT22;9505;50.882;5.350;2023-10-08T10:45:22;24.30;99.90
18753;DHT22;9505;50.882;5.350;2023-10-08T10:48:20;24.10;99.90
18753;DHT22;9505;50.882;5.350;2023-10-08T10:50:50;24.50;99.90
18753;DHT22;9505;50.882;5.350;2023-10-08T10:56:12;24.40;99.90
18753;DHT22;9505;50.882;5.350;2023-10-08T10:58:47;23.90;99.90
18753;DHT22;9505;50.882;5.350;2023-10-08T11:01:22;23.60;99.90
18753;DHT22;9505;50.882;5.350;2023-10-08T11:03:51;23.70;99.90
18753;DHT22;9505;50.882;5.350;2023-10-08T11:06:18;23.80;99.90
18753;DHT22;9505;50.882;5.350;2023-10-08T11:08:52;23.90;99.90
18753;DHT22;9505;50.882;5.350;2023-10-08T11:11:19;24.10;99.90
18753;DHT22;9505;50.882;5.350;2023-10-08T11:13:45;24.40;99.90
18753;DHT22;9505;50.882;5.350;2023-10-08T11:16:23;24.50;99.90
18753;DHT22;9505;50.882;5.350;2023-10-08T11:18:50;24.70;99.90
18753;DHT22;9505;50.882;5.350;2023-10-08T11:21:17;24.80;99.90
18753;DHT22;9505;50.882;5.350;2023-10-08T11:23:49;24.80;99.90
18753;DHT22;9505;50.882;5.350;2023-10-08T11:26:37;25.00;99.90
18753;DHT22;9505;50.882;5.350;2023-10-08T11:29:20;25.10;99.90
18753;DHT22;9505;50.882;5.350;2023-10-08T11:31:51;25.10;99.90
18753;DHT22;9505;50.882;5.350;2023-10-08T11:34:17;25.20;99.90
18753;DHT22;9505;50.882;5.350;2023-10-08T11:36:52;25.50;99.90
18753;DHT22;9505;50.882;5.350;2023-10-08T11:39:18;25.00;99.90
18753;DHT22;9505;50.882;5.350;2023-10-08T11:42:02;25.00;99.90
18753;DHT22;9505;50.882;5.350;2023-10-08T11:44:33;25.30;99.90
18753;DHT22;9505;50.882;5.350;2023-10-08T11:47:04;25.70;99.90
18753;DHT22;9505;50.882;5.350;2023-10-08T11:49:40;25.90;99.90
18753;DHT22;9505;50.882;5.350;2023-10-08T11:52:13;26.10;99.90
18753;DHT22;9505;50.882;5.350;2023-10-08T11:54:42;26.20;99.90
18753;DHT22;9505;50.882;5.350;2023-10-08T11:57:08;26.30;99.90
18753;DHT22;9505;50.882;5.350;2023-10-08T11:59:35;26.20;99.90
18753;DHT22;9505;50.882;5.350;2023-10-08T12:02:06;26.00;99.90
18753;DHT22;9505;50.882;5.350;2023-10-08T12:04:31;25.80;99.90
18753;DHT22;9505;50.882;5.350;2023-10-08T12:06:58;25.90;99.90
18753;DHT22;9505;50.882;5.350;2023-10-08T12:09:27;25.80;99.90
18753;DHT22;9505;50.882;5.350;2023-10-08T12:11:54;26.10;99.90
18753;DHT22;9505;50.882;5.350;2023-10-08T12:14:19;26.40;99.90
18753;DHT22;9505;50.882;5.350;2023-10-08T12:16:45;26.70;99.90
18753;DHT22;9505;50.882;5.350;2023-10-08T12:19:11;26.60;99.90
18753;DHT22;9505;50.882;5.350;2023-10-08T12:21:44;26.70;99.90
18753;DHT22;9505;50.882;5.350;2023-10-08T12:24:14;27.00;99.90
18753;DHT22;9505;50.882;5.350;2023-10-08T12:26:40;26.80;99.90
18753;DHT22;9505;50.882;5.350;2023-10-08T12:29:12;26.40;99.90
18753;DHT22;9505;50.882;5.350;2023-10-08T12:31:43;26.40;99.90
18753;DHT22;9505;50.882;5.350;2023-10-08T12:34:13;26.30;99.90
18753;DHT22;9505;50.882;5.350;2023-10-08T12:36:39;26.30;99.90
18753;DHT22;9505;50.882;5.350;2023-10-08T12:39:05;26.60;99.90
18753;DHT22;9505;50.882;5.350;2023-10-08T12:41:41;26.30;99.90
18753;DHT22;9505;50.882;5.350;2023-10-08T12:44:10;26.20;99.90
18753;DHT22;9505;50.882;5.350;2023-10-08T12:46:35;25.80;99.90
18753;DHT22;9505;50.882;5.350;2023-10-08T12:49:02;25.50;99.90
18753;DHT22;9505;50.882;5.350;2023-10-08T12:51:29;25.60;99.90
18753;DHT22;9505;50.882;5.350;2023-10-08T12:53:59;25.90;99.90
18753;DHT22;9505;50.882;5.350;2023-10-08T12:56:29;26.40;99.90
18753;DHT22;9505;50.882;5.350;2023-10-08T12:59:01;26.30;99.90
18753;DHT22;9505;50.882;5.350;2023-10-08T13:01:29;26.70;99.90
18753;DHT22;9505;50.882;5.350;2023-10-08T13:03:56;26.80;99.90
18753;DHT22;9505;50.882;5.350;2023-10-08T13:06:33;26.70;99.90
18753;DHT22;9505;50.882;5.350;2023-10-08T13:09:03;26.70;99.90
18753;DHT22;9505;50.882;5.350;2023-10-08T13:11:35;26.40;99.90
18753;DHT22;9505;50.882;5.350;2023-10-08T13:14:00;26.10;99.90
18753;DHT22;9505;50.882;5.350;2023-10-08T13:16:27;26.10;99.90
18753;DHT22;9505;50.882;5.350;2023-10-08T13:19:00;26.20;99.90
18753;DHT22;9505;50.882;5.350;2023-10-08T13:21:27;26.10;99.90
18753;DHT22;9505;50.882;5.350;2023-10-08T13:23:54;26.10;99.90
18753;DHT22;9505;50.882;5.350;2023-10-08T13:26:29;26.40;99.90
18753;DHT22;9505;50.882;5.350;2023-10-08T13:28:57;26.80;99.90
18753;DHT22;9505;50.882;5.350;2023-10-08T13:31:28;26.90;99.90
18753;DHT22;9505;50.882;5.350;2023-10-08T13:33:54;26.40;99.90
18753;DHT22;9505;50.882;5.350;2023-10-08T13:36:23;26.80;99.90
18753;DHT22;9505;50.882;5.350;2023-10-08T13:38:49;26.80;99.90
18753;DHT22;9505;50.882;5.350;2023-10-08T13:41:15;26.80;99.90
18753;DHT22;9505;50.882;5.350;2023-10-08T13:43:42;27.20;99.90
18753;DHT22;9505;50.882;5.350;2023-10-08T13:46:13;27.60;99.90
18753;DHT22;9505;50.882;5.350;2023-10-08T13:48:40;27.20;99.90
18753;DHT22;9505;50.882;5.350;2023-10-08T13:51:07;27.40;99.90
18753;DHT22;9505;50.882;5.350;2023-10-08T13:53:42;27.60;99.90
18753;DHT22;9505;50.882;5.350;2023-10-08T13:56:11;27.70;99.90
18753;DHT22;9505;50.882;5.350;2023-10-08T13:58:38;28.10;99.90
18753;DHT22;9505;50.882;5.350;2023-10-08T14:01:12;27.90;99.90
18753;DHT22;9505;50.882;5.350;2023-10-08T14:03:46;28.20;99.90
18753;DHT22;9505;50.882;5.350;2023-10-08T14:06:12;28.20;99.90
18753;DHT22;9505;50.882;5.350;2023-10-08T14:08:39;28.20;99.90
18753;DHT22;9505;50.882;5.350;2023-10-08T14:11:05;28.50;99.90
18753;DHT22;9505;50.882;5.350;2023-10-08T14:13:31;28.60;99.90
18753;DHT22;9505;50.882;5.350;2023-10-08T14:15:58;28.40;99.90
18753;DHT22;9505;50.882;5.350;2023-10-08T14:18:25;28.90;99.90
18753;DHT22;9505;50.882;5.350;2023-10-08T14:20:57;28.90;99.90
18753;DHT22;9505;50.882;5.350;2023-10-08T14:23:23;28.40;99.90
18753;DHT22;9505;50.882;5.350;2023-10-08T14:25:52;27.70;99.90
18753;DHT22;9505;50.882;5.350;2023-10-08T14:28:21;27.40;99.90
18753;DHT22;9505;50.882;5.350;2023-10-08T14:31:08;28.10;99.90
18753;DHT22;9505;50.882;5.350;2023-10-08T14:33:34;28.50;99.90
18753;DHT22;9505;50.882;5.350;2023-10-08T14:36:09;28.60;99.90
18753;DHT22;9505;50.882;5.350;2023-10-08T14:38:54;28.70;99.90
18753;DHT22;9505;50.882;5.350;2023-10-08T14:41:39;28.80;99.90
18753;DHT22;9505;50.882;5.350;2023-10-08T14:44:23;29.00;99.90
18753;DHT22;9505;50.882;5.350;2023-10-08T14:46:50;29.00;99.90
18753;DHT22;9505;50.882;5.350;2023-10-08T14:49:17;29.00;99.90
18753;DHT22;9505;50.882;5.350;2023-10-08T14:51:42;28.90;99.90
18753;DHT22;9505;50.882;5.350;2023-10-08T14:54:08;28.90;99.90
18753;DHT22;9505;50.882;5.350;2023-10-08T14:56:37;28.40;99.90
18753;DHT22;9505;50.882;5.350;2023-10-08T14:59:04;27.60;99.90
18753;DHT22;9505;50.882;5.350;2023-10-08T15:01:30;27.50;99.90
18753;DHT22;9505;50.882;5.350;2023-10-08T15:03:59;27.80;99.90
18753;DHT22;9505;50.882;5.350;2023-10-08T15:06:30;28.20;99.90
18753;DHT22;9505;50.882;5.350;2023-10-08T15:08:56;28.20;99.90
18753;DHT22;9505;50.882;5.350;2023-10-08T15:11:23;27.80;99.90
18753;DHT22;9505;50.882;5.350;2023-10-08T15:13:50;28.20;99.90
18753;DHT22;9505;50.882;5.350;2023-10-08T15:16:20;28.50;99.90
18753;DHT22;9505;50.882;5.350;2023-10-08T15:18:52;28.60;99.90
18753;DHT22;9505;50.882;5.350;2023-10-08T15:21:19;28.50;99.90
18753;DHT22;9505;50.882;5.350;2023-10-08T15:23:46;27.80;99.90
18753;DHT22;9505;50.882;5.350;2023-10-08T15:26:12;27.60;99.90
18753;DHT22;9505;50.882;5.350;2023-10-08T15:28:39;27.50;99.90
18753;DHT22;9505;50.882;5.350;2023-10-08T15:31:05;26.80;99.90
18753;DHT22;9505;50.882;5.350;2023-10-08T15:33:32;26.20;99.90
18753;DHT22;9505;50.882;5.350;2023-10-08T15:35:58;25.80;99.90
18753;DHT22;9505;50.882;5.350;2023-10-08T15:38:25;25.60;99.90
18753;DHT22;9505;50.882;5.350;2023-10-08T15:40:51;25.50;99.90
18753;DHT22;9505;50.882;5.350;2023-10-08T15:43:17;25.10;99.90
18753;DHT22;9505;50.882;5.350;2023-10-08T15:45:43;25.10;99.90
18753;DHT22;9505;50.882;5.350;2023-10-08T15:48:10;25.20;99.90
18753;DHT22;9505;50.882;5.350;2023-10-08T15:50:36;25.40;99.90
18753;DHT22;9505;50.882;5.350;2023-10-08T15:53:01;25.40;99.90
18753;DHT22;9505;50.882;5.350;2023-10-08T15:55:27;25.40;99.90
18753;DHT22;9505;50.882;5.350;2023-10-08T15:57:53;25.40;99.90
18753;DHT22;9505;50.882;5.350;2023-10-08T16:00:19;25.50;99.90
18753;DHT22;9505;50.882;5.350;2023-10-08T16:02:44;25.60;99.90
18753;DHT22;9505;50.882;5.350;2023-10-08T16:05:12;25.50;99.90
18753;DHT22;9505;50.882;5.350;2023-10-08T16:07:40;25.40;99.90
18753;DHT22;9505;50.882;5.350;2023-10-08T16:10:06;25.10;99.90
18753;DHT22;9505;50.882;5.350;2023-10-08T16:12:32;24.70;99.90
18753;DHT22;9505;50.882;5.350;2023-10-08T16:14:58;24.60;99.90
18753;DHT22;9505;50.882;5.350;2023-10-08T16:17:24;24.20;99.90